Time,TemperatureF,DewpointF,PressureIn,WindDirection,WindDirectionDegrees,WindSpeedMPH,WindSpeedGustMPH,Humidity,HourlyPrecipIn,Conditions,Clouds,dailyrainin,SoftwareType,DateUTC
2013-04-18 00:00:00,40.6,17.0,29.86,WNW,286,2.0,4.0,39,0.00,,,0.00,weatherlink.com 1.10,2013-04-18 06:00:00,
2013-04-18 00:15:00,40.6,17.0,29.87,NNW,338,4.0,9.0,38,0.00,,,0.00,weatherlink.com 1.10,2013-04-18 06:15:00,
2013-04-18 00:30:00,40.2,16.0,29.88,NNW,341,7.0,11.0,38,0.00,,,0.00,weatherlink.com 1.10,2013-04-18 06:30:00,
2013-04-18 00:45:00,39.7,16.0,29.89,WNW,301,5.0,6.0,38,0.00,,,0.00,weatherlink.com 1.10,2013-04-18 06:45:00,
2013-04-18 01:00:00,38.8,15.0,29.89,WNW,294,4.0,5.0,38,0.00,,,0.00,weatherlink.com 1.10,2013-04-18 07:00:00,
2013-04-18 01:16:00,38.2,15.0,29.89,WSW,255,4.0,6.0,39,0.00,,,0.00,weatherlink.com 1.10,2013-04-18 07:16:00,
2013-04-18 01:31:00,37.9,15.0,29.90,SW,236,3.0,7.0,40,0.00,,,0.00,weatherlink.com 1.10,2013-04-18 07:31:00,
2013-04-18 01:46:00,38.3,15.0,29.90,WNW,292,3.0,14.0,39,0.00,,,0.00,weatherlink.com 1.10,2013-04-18 07:46:00,
2013-04-18 02:01:00,38.6,14.0,29.90,NW,315,2.0,17.0,37,0.00,,,0.00,weatherlink.com 1.10,2013-04-18 08:01:00,
2013-04-18 02:16:00,38.0,14.0,29.90,WNW,284,8.0,11.0,38,0.00,,,0.00,weatherlink.com 1.10,2013-04-18 08:16:00,
2013-04-18 02:31:00,37.3,14.0,29.91,WNW,300,3.0,15.0,38,0.00,,,0.00,weatherlink.com 1.10,2013-04-18 08:31:00,
2013-04-18 02:46:00,36.5,14.0,29.91,NW,309,3.0,7.0,40,0.00,,,0.00,weatherlink.com 1.10,2013-04-18 08:46:00,
2013-04-18 03:01:00,35.5,14.0,29.90,West,278,6.0,6.0,41,0.00,,,0.00,weatherlink.com 1.10,2013-04-18 09:01:00,
2013-04-18 03:31:00,34.3,14.0,29.91,SW,224,3.0,7.0,43,0.00,,,0.00,weatherlink.com 1.10,2013-04-18 09:31:00,
2013-04-18 03:46:00,32.8,13.0,29.91,SW,225,4.0,4.0,44,0.00,,,0.00,weatherlink.com 1.10,2013-04-18 09:46:00,
2013-04-18 04:01:00,32.4,13.0,29.91,West,259,5.0,9.0,45,0.00,,,0.00,weatherlink.com 1.10,2013-04-18 10:01:00,
2013-04-18 04:16:00,33.6,13.0,29.92,West,273,4.0,11.0,42,0.00,,,0.00,weatherlink.com 1.10,2013-04-18 10:16:00,
2013-04-18 04:31:00,33.0,13.0,29.92,WSW,246,4.0,10.0,43,0.00,,,0.00,weatherlink.com 1.10,2013-04-18 10:31:00,
2013-04-18 04:46:00,32.7,12.0,29.93,South,175,1.0,8.0,43,0.00,,,0.00,weatherlink.com 1.10,2013-04-18 10:46:00,
2013-04-18 05:01:00,32.5,12.0,29.93,South,184,6.0,6.0,43,0.00,,,0.00,weatherlink.com 1.10,2013-04-18 11:01:00,
2013-04-18 05:16:00,32.8,12.0,29.94,South,186,3.0,8.0,42,0.00,,,0.00,weatherlink.com 1.10,2013-04-18 11:16:00,
2013-04-18 05:31:00,32.7,12.0,29.94,SW,215,5.0,11.0,42,0.00,,,0.00,weatherlink.com 1.10,2013-04-18 11:31:00,
2013-04-18 05:46:00,32.5,11.0,29.94,SW,214,8.0,12.0,41,0.00,,,0.00,weatherlink.com 1.10,2013-04-18 11:46:00,
2013-04-18 06:01:00,31.8,10.0,29.93,SW,225,8.0,15.0,41,0.00,,,0.00,weatherlink.com 1.10,2013-04-18 12:01:00,
2013-04-18 06:16:00,30.3,9.0,29.95,WSW,254,3.0,12.0,41,0.00,,,0.00,weatherlink.com 1.10,2013-04-18 12:16:00,
2013-04-18 06:31:00,30.4,9.0,29.97,SSE,161,4.0,6.0,40,0.00,,,0.00,weatherlink.com 1.10,2013-04-18 12:31:00,
2013-04-18 06:46:00,31.6,9.0,29.97,South,178,9.0,9.0,39,0.00,,,0.00,weatherlink.com 1.10,2013-04-18 12:46:00,
2013-04-18 07:01:00,31.7,8.0,29.98,SW,232,5.0,15.0,37,0.00,,,0.00,weatherlink.com 1.10,2013-04-18 13:01:00,
2013-04-18 07:16:00,32.5,8.0,30.01,SSW,198,3.0,8.0,36,0.00,,,0.00,weatherlink.com 1.10,2013-04-18 13:16:00,
2013-04-18 07:32:00,32.8,8.0,30.02,SSW,192,3.0,7.0,35,0.00,,,0.00,weatherlink.com 1.10,2013-04-18 13:32:00,
2013-04-18 07:47:00,33.1,8.0,30.02,WSW,255,6.0,12.0,35,0.00,,,0.00,weatherlink.com 1.10,2013-04-18 13:47:00,
2013-04-18 08:02:00,33.3,8.0,30.03,WNW,286,10.0,18.0,34,0.00,,,0.00,weatherlink.com 1.10,2013-04-18 14:02:00,
2013-04-18 08:17:00,34.0,8.0,30.03,NW,309,6.0,12.0,34,0.00,,,0.00,weatherlink.com 1.10,2013-04-18 14:17:00,
2013-04-18 08:32:00,34.6,8.0,30.04,West,279,6.0,11.0,33,0.00,,,0.00,weatherlink.com 1.10,2013-04-18 14:32:00,
2013-04-18 08:47:00,34.5,8.0,30.04,WNW,302,5.0,12.0,33,0.00,,,0.00,weatherlink.com 1.10,2013-04-18 14:47:00,
2013-04-18 09:17:00,36.5,8.0,30.04,West,277,9.0,13.0,30,0.00,,,0.00,weatherlink.com 1.10,2013-04-18 15:17:00,
2013-04-18 09:32:00,36.9,8.0,30.04,WNW,287,11.0,18.0,30,0.00,,,0.00,weatherlink.com 1.10,2013-04-18 15:32:00,
2013-04-18 09:47:00,38.3,8.0,30.05,NW,317,9.0,17.0,28,0.00,,,0.00,weatherlink.com 1.10,2013-04-18 15:47:00,
2013-04-18 10:02:00,39.0,7.0,30.05,West,280,5.0,17.0,26,0.00,,,0.00,weatherlink.com 1.10,2013-04-18 16:02:00,
2013-04-18 10:17:00,40.0,7.0,30.04,WNW,286,16.0,26.0,25,0.00,,,0.00,weatherlink.com 1.10,2013-04-18 16:17:00,
2013-04-18 10:32:00,40.9,6.0,30.04,NNW,327,16.0,26.0,23,0.00,,,0.00,weatherlink.com 1.10,2013-04-18 16:32:00,
2013-04-18 10:47:00,40.6,6.0,30.05,West,276,16.0,28.0,24,0.00,,,0.00,weatherlink.com 1.10,2013-04-18 16:47:00,
2013-04-18 11:02:00,42.0,7.0,30.04,NW,315,12.0,24.0,23,0.00,,,0.00,weatherlink.com 1.10,2013-04-18 17:02:00,
2013-04-18 11:17:00,43.5,5.0,30.04,WNW,289,16.0,27.0,20,0.00,,,0.00,weatherlink.com 1.10,2013-04-18 17:17:00,
2013-04-18 11:32:00,43.3,6.0,30.04,NW,318,21.0,25.0,21,0.00,,,0.00,weatherlink.com 1.10,2013-04-18 17:32:00,
2013-04-18 11:47:00,43.4,4.0,30.04,West,264,12.0,29.0,19,0.00,,,0.00,weatherlink.com 1.10,2013-04-18 17:47:00,
2013-04-18 12:02:00,44.7,3.0,30.05,West,281,11.0,20.0,18,0.00,,,0.00,weatherlink.com 1.10,2013-04-18 18:02:00,
2013-04-18 12:17:00,44.9,2.0,30.04,West,272,10.0,25.0,17,0.00,,,0.00,weatherlink.com 1.10,2013-04-18 18:17:00,
2013-04-18 12:32:00,44.8,3.0,30.04,West,270,9.0,26.0,18,0.00,,,0.00,weatherlink.com 1.10,2013-04-18 18:32:00,
2013-04-18 12:47:00,45.4,1.0,30.04,WNW,296,16.0,23.0,16,0.00,,,0.00,weatherlink.com 1.10,2013-04-18 18:47:00,
2013-04-18 13:02:00,45.8,2.0,30.04,WSW,253,16.0,26.0,16,0.00,,,0.00,weatherlink.com 1.10,2013-04-18 19:02:00,
2013-04-18 13:17:00,45.8,2.0,30.04,WNW,299,13.0,24.0,16,0.00,,,0.00,weatherlink.com 1.10,2013-04-18 19:17:00,
2013-04-18 13:32:00,46.9,3.0,30.05,West,270,12.0,27.0,16,0.00,,,0.00,weatherlink.com 1.10,2013-04-18 19:32:00,
2013-04-18 13:47:00,46.6,4.0,30.05,WNW,285,17.0,25.0,17,0.00,,,0.00,weatherlink.com 1.10,2013-04-18 19:47:00,
2013-04-18 14:02:00,46.4,2.0,30.05,NW,311,15.0,27.0,16,0.00,,,0.00,weatherlink.com 1.10,2013-04-18 20:02:00,
2013-04-18 14:17:00,46.7,3.0,30.05,NW,316,9.0,29.0,16,0.00,,,0.00,weatherlink.com 1.10,2013-04-18 20:17:00,
2013-04-18 14:32:00,46.7,0.0,30.05,NW,314,12.0,31.0,14,0.00,,,0.00,weatherlink.com 1.10,2013-04-18 20:32:00,
2013-04-18 14:47:00,47.4,2.0,30.05,WNW,301,16.0,31.0,15,0.00,,,0.00,weatherlink.com 1.10,2013-04-18 20:47:00,
2013-04-18 15:02:00,47.2,3.0,30.05,West,260,11.0,25.0,16,0.00,,,0.00,weatherlink.com 1.10,2013-04-18 21:02:00,
2013-04-18 15:17:00,47.8,1.0,30.04,NNW,329,20.0,25.0,14,0.00,,,0.00,weatherlink.com 1.10,2013-04-18 21:17:00,
2013-04-18 15:32:00,48.0,1.0,30.06,WNW,301,21.0,28.0,14,0.00,,,0.00,weatherlink.com 1.10,2013-04-18 21:32:00,
2013-04-18 15:48:00,47.5,2.0,30.06,West,279,18.0,31.0,15,0.00,,,0.00,weatherlink.com 1.10,2013-04-18 21:48:00,
2013-04-18 16:03:00,46.9,3.0,30.05,NW,319,19.0,29.0,16,0.00,,,0.00,weatherlink.com 1.10,2013-04-18 22:03:00,
2013-04-18 16:18:00,47.4,3.0,30.06,WNW,296,18.0,27.0,16,0.00,,,0.00,weatherlink.com 1.10,2013-04-18 22:18:00,
2013-04-18 16:33:00,47.8,2.0,30.07,NNW,329,15.0,29.0,15,0.00,,,0.00,weatherlink.com 1.10,2013-04-18 22:33:00,
2013-04-18 16:48:00,48.4,3.0,30.07,WNW,303,11.0,25.0,15,0.00,,,0.00,weatherlink.com 1.10,2013-04-18 22:48:00,
2013-04-18 17:03:00,47.9,2.0,30.07,West,267,14.0,24.0,15,0.00,,,0.00,weatherlink.com 1.10,2013-04-18 23:03:00,
2013-04-18 17:18:00,48.7,1.0,30.08,WNW,302,14.0,25.0,14,0.00,,,0.00,weatherlink.com 1.10,2013-04-18 23:18:00,
2013-04-18 17:33:00,48.7,1.0,30.08,WSW,246,16.0,26.0,14,0.00,,,0.00,weatherlink.com 1.10,2013-04-18 23:33:00,
2013-04-18 17:48:00,49.0,2.0,30.09,WNW,290,10.0,22.0,14,0.00,,,0.00,weatherlink.com 1.10,2013-04-18 23:48:00,
2013-04-18 18:03:00,48.2,1.0,30.10,WNW,298,25.0,29.0,14,0.00,,,0.00,weatherlink.com 1.10,2013-04-19 00:03:00,
2013-04-18 18:18:00,47.7,0.0,30.09,WNW,282,15.0,25.0,14,0.00,,,0.00,weatherlink.com 1.10,2013-04-19 00:18:00,
2013-04-18 18:33:00,48.0,1.0,30.10,NW,309,17.0,26.0,14,0.00,,,0.00,weatherlink.com 1.10,2013-04-19 00:33:00,
2013-04-18 18:48:00,47.9,2.0,30.11,NNW,338,10.0,26.0,15,0.00,,,0.00,weatherlink.com 1.10,2013-04-19 00:48:00,
2013-04-18 19:03:00,47.7,0.0,30.11,WNW,298,19.0,23.0,14,0.00,,,0.00,weatherlink.com 1.10,2013-04-19 01:03:00,
2013-04-18 19:19:00,47.1,0.0,30.12,NNW,327,15.0,24.0,14,0.00,,,0.00,weatherlink.com 1.10,2013-04-19 01:19:00,
2013-04-18 19:34:00,46.7,1.0,30.12,WNW,296,10.0,22.0,15,0.00,,,0.00,weatherlink.com 1.10,2013-04-19 01:34:00,
2013-04-18 19:49:00,46.1,1.0,30.14,West,269,8.0,17.0,15,0.00,,,0.00,weatherlink.com 1.10,2013-04-19 01:49:00,
2013-04-18 20:04:00,45.7,2.0,30.14,WNW,300,5.0,21.0,16,0.00,,,0.00,weatherlink.com 1.10,2013-04-19 02:04:00,
2013-04-18 20:19:00,45.0,2.0,30.16,West,272,11.0,19.0,17,0.00,,,0.00,weatherlink.com 1.10,2013-04-19 02:19:00,
2013-04-18 20:34:00,44.4,2.0,30.17,West,276,6.0,15.0,17,0.00,,,0.00,weatherlink.com 1.10,2013-04-19 02:34:00,
2013-04-18 20:49:00,44.0,2.0,30.19,West,280,6.0,12.0,17,0.00,,,0.00,weatherlink.com 1.10,2013-04-19 02:49:00,
2013-04-18 21:04:00,43.2,2.0,30.20,WNW,302,10.0,11.0,18,0.00,,,0.00,weatherlink.com 1.10,2013-04-19 03:04:00,
2013-04-18 21:19:00,43.6,2.0,30.20,West,280,3.0,12.0,18,0.00,,,0.00,weatherlink.com 1.10,2013-04-19 03:19:00,
2013-04-18 21:34:00,43.1,2.0,30.20,WNW,284,11.0,13.0,18,0.00,,,0.00,weatherlink.com 1.10,2013-04-19 03:34:00,
2013-04-18 21:49:00,43.0,3.0,30.20,WNW,300,11.0,23.0,19,0.00,,,0.00,weatherlink.com 1.10,2013-04-19 03:49:00,
2013-04-18 22:04:00,42.8,4.0,30.20,NW,306,17.0,21.0,20,0.00,,,0.00,weatherlink.com 1.10,2013-04-19 04:04:00,
2013-04-18 22:19:00,42.5,4.0,30.20,NW,313,13.0,25.0,20,0.00,,,0.00,weatherlink.com 1.10,2013-04-19 04:19:00,
2013-04-18 22:35:00,42.2,4.0,30.21,NW,312,10.0,23.0,20,0.00,,,0.00,weatherlink.com 1.10,2013-04-19 04:35:00,
2013-04-18 22:50:00,41.8,4.0,30.22,WNW,301,9.0,19.0,21,0.00,,,0.00,weatherlink.com 1.10,2013-04-19 04:50:00,
2013-04-18 23:05:00,41.1,4.0,30.22,WNW,303,9.0,16.0,21,0.00,,,0.00,weatherlink.com 1.10,2013-04-19 05:05:00,
2013-04-18 23:20:00,40.4,4.0,30.22,WNW,292,5.0,15.0,22,0.00,,,0.00,weatherlink.com 1.10,2013-04-19 05:20:00,
2013-04-18 23:35:00,40.1,5.0,30.22,NW,319,7.0,17.0,23,0.00,,,0.00,weatherlink.com 1.10,2013-04-19 05:35:00,
2013-04-18 23:50:00,40.2,5.0,30.23,WNW,290,11.0,19.0,23,0.00,,,0.00,weatherlink.com 1.10,2013-04-19 05:50:00,